Hovedside
METAR-TAF:

METAR-TAF

Lufthavner :

Kalmar lufthavn

Kalmar, Sverige

breddegrad: 56-44N, lengdegrad: 016-18E, høyde over havet: 16 m

Gjeldene værobservasjon

Denne rapporten ble laget for 31 minutter siden, klokken 10:50 UTC
Vind 10 kt fra Vest
Temperatur 18°C
Luftfuktighet 56%
Trykk 1010 hPa
Sikt 10 km eller mer
Få skyer i en høyde av 3400 ft
Spredte skyer i en høyde av 4100 ft
Brutte skyer i en høyde av 4700 ft

METAR: ESMQ 191050Z 28010KT 9999 FEW034 SCT041 BKN047 18/09 Q1010

Tid: 13:21 (11:21 UTC)

Varsel

Denne rapporten ble laget for 2 timer og 51 minutter siden, klokken 08:30 UTC
Varsel gyldig fra 19. klokken 09 UTC til 19. klokken 18 UTC
Vind 10 kt fra Vest-nordvest
Sikt 10 km eller mer
Spredte skyer i en høyde av 3500 ft

TAF: ESMQ 190830Z 1909/1918 29010KT 9999 SCT035

Værobservasjoner og værvarsel for over 4000 flyplasser (METAR- og TAF-rapporter).

Tilgjengelige stasjoner er representert av de røde og gule prikkene på kartet.

Hold musepekeren over prikken for å se navnet på stasjonen.

Klikk så for å se værobservasjoner og -varsler.

For å forandre kartet kan du klikke på den grønne knappen med svart kryss for å zoome inn, på den grønne knappen med strek for å zoome ut, eller på de grønne pilene for å se tilstøtende kart.


METAR-TAF: